createdAt,value
2018-12-30T00:04:31.342Z,100484.31
2018-12-30T00:09:35.090Z,100485.70
2018-12-30T00:14:38.555Z,100475.99
2018-12-30T00:19:42.342Z,100471.23
2018-12-30T00:24:46.270Z,100472.03
2018-12-30T00:29:49.740Z,100477.77
2018-12-30T00:34:53.223Z,100466.67
2018-12-30T00:39:56.692Z,100471.63
2018-12-30T00:45:00.263Z,100464.88
2018-12-30T00:50:04.351Z,100469.64
2018-12-30T00:55:07.830Z,100469.86
2018-12-30T01:00:11.468Z,100472.03
2018-12-30T01:05:14.938Z,100478.17
2018-12-30T01:10:18.685Z,100478.36
2018-12-30T01:15:22.152Z,100484.70
2018-12-30T01:20:25.618Z,100484.10
2018-12-30T01:25:29.089Z,100487.82
2018-12-30T01:30:32.550Z,100484.86
2018-12-30T01:35:36.017Z,100487.23
2018-12-30T01:40:39.491Z,100489.80
2018-12-30T01:45:42.961Z,100484.45
2018-12-30T01:50:46.433Z,100481.68
2018-12-30T01:55:49.902Z,100482.27
2018-12-30T02:00:53.371Z,100488.20
2018-12-30T02:05:57.006Z,100481.87
2018-12-30T02:11:00.471Z,100483.25
2018-12-30T02:16:04.215Z,100488.80
2018-12-30T02:21:07.680Z,100476.13
2018-12-30T02:26:11.518Z,100470.97
2018-12-30T02:31:14.989Z,100486.81
2018-12-30T02:36:18.486Z,100485.43
2018-12-30T02:41:21.918Z,100479.29
2018-12-30T02:46:25.387Z,100478.69
2018-12-30T02:51:28.855Z,100471.76
2018-12-30T02:56:32.321Z,100468.38
2018-12-30T03:01:35.791Z,100464.03
2018-12-30T03:06:39.256Z,100462.84
2018-12-30T03:11:42.719Z,100464.23
2018-12-30T03:16:46.198Z,100461.45
2018-12-30T03:21:49.659Z,100464.83
2018-12-30T03:26:53.125Z,100461.27
2018-12-30T03:31:56.604Z,100471.16
2018-12-30T03:37:00.068Z,100467.78
2018-12-30T03:42:03.602Z,100473.93
2018-12-30T03:47:07.073Z,100465.61
2018-12-30T03:52:11.478Z,100476.70
2018-12-30T03:57:14.932Z,100474.13
2018-12-30T04:02:18.397Z,100474.13
2018-12-30T04:07:21.862Z,100479.48
2018-12-30T04:12:25.333Z,100472.14
2018-12-30T04:17:28.786Z,100482.44
2018-12-30T04:22:33.869Z,100496.49
2018-12-30T04:27:37.597Z,100511.55
2018-12-30T04:32:41.062Z,100511.55
2018-12-30T04:37:44.528Z,100522.84
2018-12-30T04:42:47.996Z,100537.30
2018-12-30T04:47:51.460Z,100545.02
2018-12-30T04:52:54.931Z,100557.50
2018-12-30T04:57:58.391Z,100574.91
2018-12-30T05:03:01.858Z,100595.70
2018-12-30T05:08:05.322Z,100599.10
2018-12-30T05:13:08.787Z,100609.41
2018-12-30T05:18:12.257Z,100613.73
2018-12-30T05:23:15.723Z,100631.00
2018-12-30T05:28:19.191Z,100642.09
2018-12-30T05:33:22.666Z,100665.82
2018-12-30T05:38:26.125Z,100675.53
2018-12-30T05:43:29.589Z,100694.94
2018-12-30T05:48:33.053Z,100702.47
2018-12-30T05:53:36.520Z,100719.31
2018-12-30T05:58:39.987Z,100724.06
2018-12-30T06:03:43.456Z,100737.14
2018-12-30T06:08:46.926Z,100754.57
2018-12-30T06:13:50.386Z,100768.44
2018-12-30T06:18:53.861Z,100765.66
2018-12-30T06:23:57.336Z,100773.98
2018-12-30T06:29:00.799Z,100790.63
2018-12-30T06:34:04.268Z,100797.39
2018-12-30T06:39:07.730Z,100804.33
2018-12-30T06:44:11.204Z,100829.87
2018-12-30T06:49:14.667Z,100837.77
2018-12-30T06:54:18.134Z,100853.22
2018-12-30T06:59:21.600Z,100859.96
2018-12-30T07:04:25.062Z,100864.91
2018-12-30T07:09:28.528Z,100877.39
2018-12-30T07:14:31.994Z,100889.28
2018-12-30T07:19:35.455Z,100894.63
2018-12-30T07:24:38.919Z,100915.42
2018-12-30T07:29:42.460Z,100927.91
2018-12-30T07:34:45.926Z,100935.64
2018-12-30T07:39:49.402Z,100943.16
2018-12-30T07:44:52.873Z,100955.84
2018-12-30T07:49:56.335Z,100960.00
2018-12-30T07:54:59.799Z,100961.39
2018-12-30T08:00:03.316Z,100993.09
2018-12-30T08:05:06.775Z,100994.90
2018-12-30T08:10:10.247Z,101002.03
2018-12-30T08:15:13.721Z,101002.46
2018-12-30T08:20:17.179Z,101028.64
2018-12-30T08:25:20.639Z,101034.20
2018-12-30T08:30:24.104Z,101060.11
2018-12-30T08:35:27.570Z,101054.17
2018-12-30T08:40:31.039Z,101059.33
2018-12-30T08:45:34.514Z,101074.38
2018-12-30T08:50:37.975Z,101068.83
2018-12-30T08:55:41.439Z,101086.06
2018-12-30T09:00:44.903Z,101094.95
2018-12-30T09:05:48.371Z,101101.69
2018-12-30T09:10:51.831Z,101111.80
2018-12-30T09:15:55.296Z,101132.37
2018-12-30T09:20:58.764Z,101145.44
2018-12-30T09:26:02.227Z,101147.22
2018-12-30T09:31:05.690Z,101149.20
2018-12-30T09:36:09.166Z,101150.79
2018-12-30T09:41:12.632Z,101142.08
2018-12-30T09:46:16.096Z,101149.59
2018-12-30T09:51:19.565Z,101150.98
2018-12-30T09:56:23.030Z,101162.27
2018-12-30T10:01:26.495Z,101161.88
2018-12-30T10:06:29.961Z,101165.84
2018-12-30T10:11:33.423Z,101171.58
2018-12-30T10:16:36.893Z,101180.30
2018-12-30T10:21:40.358Z,101178.12
2018-12-30T10:26:43.823Z,101168.82
2018-12-30T10:31:47.287Z,101184.25
2018-12-30T10:36:50.753Z,101184.45
2018-12-30T10:41:54.215Z,101181.08
2018-12-30T10:46:57.685Z,101190.20
2018-12-30T10:52:01.158Z,101185.26
2018-12-30T10:57:04.623Z,101193.58
2018-12-30T11:02:08.092Z,101190.01
2018-12-30T11:07:11.561Z,101193.37
2018-12-30T11:12:15.026Z,101182.08
2018-12-30T11:17:18.501Z,101184.26
2018-12-30T11:22:21.969Z,101191.78
2018-12-30T11:27:25.430Z,101183.47
2018-12-30T11:32:29.069Z,101187.83
2018-12-30T11:37:32.530Z,101186.23
2018-12-30T11:42:35.997Z,101183.28
2018-12-30T11:47:39.460Z,101172.78
2018-12-30T11:52:42.923Z,101174.16
2018-12-30T11:57:46.402Z,101176.73
2018-12-30T12:02:49.877Z,101192.78
2018-12-30T12:07:53.353Z,101184.47
2018-12-30T12:12:56.841Z,101189.63
2018-12-30T12:18:00.310Z,101187.05
2018-12-30T12:23:03.794Z,101199.56
2018-12-30T12:28:07.273Z,101207.27
2018-12-30T12:33:10.755Z,101214.98
2018-12-30T12:38:14.226Z,101220.54
2018-12-30T12:43:17.694Z,101218.17
2018-12-30T12:48:21.164Z,101206.28
2018-12-30T12:53:24.657Z,101202.11
2018-12-30T12:58:28.152Z,101198.94
2018-12-30T13:03:31.639Z,101200.33
2018-12-30T13:08:35.128Z,101202.10
2018-12-30T13:13:38.611Z,101227.08
2018-12-30T13:18:42.093Z,101221.73
2018-12-30T13:23:45.598Z,101217.37
2018-12-30T13:28:49.087Z,101224.11
2018-12-30T13:33:52.571Z,101212.80
2018-12-30T13:38:56.127Z,101222.31
2018-12-30T13:43:59.611Z,101231.82
2018-12-30T13:49:03.091Z,101244.10
2018-12-30T13:54:06.579Z,101235.61
2018-12-30T13:59:10.059Z,101249.28
2018-12-30T14:04:13.543Z,101250.26
2018-12-30T14:09:17.025Z,101255.01
2018-12-30T14:14:20.510Z,101264.72
2018-12-30T14:19:23.996Z,101256.98
2018-12-30T14:24:27.483Z,101265.52
2018-12-30T14:29:30.969Z,101269.27
2018-12-30T14:34:34.457Z,101277.59
2018-12-30T14:39:37.950Z,101284.32
2018-12-30T14:44:41.442Z,101279.37
2018-12-30T14:49:44.924Z,101282.77
2018-12-30T14:54:48.406Z,101298.19
2018-12-30T14:59:51.900Z,101295.25
2018-12-30T15:04:55.382Z,101297.39
2018-12-30T15:09:58.890Z,101296.80
2018-12-30T15:15:02.372Z,101305.13
2018-12-30T15:20:07.700Z,101292.64
2018-12-30T15:25:12.126Z,101285.91
2018-12-30T15:30:15.744Z,101284.53
2018-12-30T15:35:19.224Z,101279.19
2018-12-30T15:40:22.704Z,101278.39
2018-12-30T15:45:26.182Z,101297.80
2018-12-30T15:50:29.672Z,101299.98
2018-12-30T15:55:33.156Z,101283.14
2018-12-30T16:00:36.648Z,101269.47
2018-12-30T16:05:40.122Z,101283.14
2018-12-30T16:10:43.606Z,101298.80
2018-12-30T16:15:47.088Z,101296.62
2018-12-30T16:20:50.569Z,101292.66
2018-12-30T16:25:54.050Z,101311.87
2018-12-30T16:30:57.536Z,101337.64
2018-12-30T16:36:01.021Z,101339.62
2018-12-30T16:41:04.507Z,101363.40
2018-12-30T16:46:07.993Z,101386.59
2018-12-30T16:51:11.476Z,101387.39
2018-12-30T16:56:14.960Z,101376.29
2018-12-30T17:01:18.447Z,101377.67
2018-12-30T17:06:21.930Z,101368.77
2018-12-30T17:11:25.417Z,101352.92
2018-12-30T17:16:28.898Z,101363.80
2018-12-30T17:21:32.378Z,101378.27
2018-12-30T17:26:35.950Z,101373.51
2018-12-30T17:31:39.423Z,101390.55
2018-12-30T17:36:42.912Z,101391.34
2018-12-30T17:41:46.399Z,101391.34
2018-12-30T17:46:49.880Z,101410.55
2018-12-30T17:51:53.372Z,101416.89
2018-12-30T17:56:56.859Z,101409.58
2018-12-30T18:02:00.338Z,101418.50
2018-12-30T18:07:03.822Z,101426.22
2018-12-30T18:12:07.311Z,101425.63
2018-12-30T18:17:10.792Z,101428.41
2018-12-30T18:22:14.274Z,101452.58
2018-12-30T18:27:17.761Z,101444.25
2018-12-30T18:32:21.239Z,101439.30
2018-12-30T18:37:24.719Z,101442.87
2018-12-30T18:42:28.199Z,101451.98
2018-12-30T18:47:31.684Z,101446.03
2018-12-30T18:52:35.181Z,101440.48
2018-12-30T18:57:38.665Z,101439.30
2018-12-30T19:02:42.143Z,101430.77
2018-12-30T19:07:45.623Z,101437.91
2018-12-30T19:12:49.109Z,101444.25
2018-12-30T19:17:52.593Z,101444.64
2018-12-30T19:22:56.162Z,101461.29
2018-12-30T19:27:59.638Z,101464.06
2018-12-30T19:33:03.120Z,101465.45
2018-12-30T19:38:06.602Z,101461.49
2018-12-30T19:43:10.098Z,101464.06
2018-12-30T19:48:13.573Z,101463.47
2018-12-30T19:53:17.053Z,101455.94
2018-12-30T19:58:20.537Z,101458.72
2018-12-30T20:03:24.022Z,101462.88
2018-12-30T20:08:27.509Z,101470.02
2018-12-30T20:13:31.005Z,101472.80
2018-12-30T20:18:34.484Z,101465.66
2018-12-30T20:23:37.974Z,101473.39
2018-12-30T20:28:41.460Z,101475.16
2018-12-30T20:33:44.946Z,101479.53
2018-12-30T20:38:48.427Z,101481.50
2018-12-30T20:43:51.911Z,101483.89
2018-12-30T20:48:55.381Z,101479.73
2018-12-30T20:53:58.860Z,101480.70
2018-12-30T20:59:02.323Z,101477.93
2018-12-30T21:04:05.792Z,101475.75
2018-12-30T21:09:09.265Z,101476.55
2018-12-30T21:14:13.658Z,101479.91
2018-12-30T21:19:17.122Z,101473.77
2018-12-30T21:24:20.592Z,101466.04
2018-12-30T21:29:24.065Z,101470.20
2018-12-30T21:34:27.526Z,101466.84
2018-12-30T21:39:30.993Z,101462.47
2018-12-30T21:44:34.459Z,101463.86
2018-12-30T21:49:37.923Z,101463.06
2018-12-30T21:54:41.387Z,101471.00
2018-12-30T21:59:44.856Z,101475.16
2018-12-30T22:04:48.321Z,101476.55
2018-12-30T22:09:51.787Z,101485.45
2018-12-30T22:14:55.250Z,101490.21
2018-12-30T22:19:58.724Z,101509.62
2018-12-30T22:25:02.192Z,101511.61
2018-12-30T22:30:06.586Z,101520.72
2018-12-30T22:35:10.050Z,101521.91
2018-12-30T22:40:13.515Z,101521.91
2018-12-30T22:45:16.982Z,101517.95
2018-12-30T22:50:20.442Z,101515.17
2018-12-30T22:55:23.917Z,101519.13
2018-12-30T23:00:45.007Z,101512.78
2018-12-30T23:05:48.471Z,101508.63
2018-12-30T23:10:53.411Z,101506.23
2018-12-30T23:15:56.879Z,101506.23
2018-12-30T23:21:00.349Z,101519.30
2018-12-30T23:26:03.815Z,101529.02
2018-12-30T23:31:07.285Z,101531.79
2018-12-30T23:36:10.757Z,101531.61
2018-12-30T23:41:14.223Z,101530.23
2018-12-30T23:46:17.687Z,101522.29
2018-12-30T23:51:21.157Z,101518.13
2018-12-30T23:56:24.621Z,101523.67
